createdAt,value
2017-11-10T00:00:16.962Z,193.70
2017-11-10T00:02:44.386Z,224.40
2017-11-10T00:05:11.813Z,193.07
2017-11-10T00:07:39.258Z,182.57
2017-11-10T00:10:07.460Z,186.07
2017-11-10T00:12:34.885Z,190.93
2017-11-10T00:15:03.202Z,176.23
2017-11-10T00:17:30.632Z,156.93
2017-11-10T00:19:58.059Z,242.23
2017-11-10T00:22:25.494Z,207.73
2017-11-10T00:24:52.943Z,216.33
2017-11-10T00:27:20.385Z,213.37
2017-11-10T00:29:47.834Z,222.63
2017-11-10T00:32:15.261Z,302.30
2017-11-10T00:34:43.465Z,243.37
2017-11-10T00:37:10.915Z,218.10
2017-11-10T00:39:38.351Z,252.27
2017-11-10T00:42:06.577Z,246.83
2017-11-10T00:44:34.013Z,263.43
2017-11-10T00:47:01.457Z,259.07
2017-11-10T00:49:28.937Z,276.07
2017-11-10T00:51:56.403Z,248.73
2017-11-10T00:54:23.854Z,263.63
2017-11-10T00:56:51.274Z,283.47
2017-11-10T00:59:18.761Z,234.50
2017-11-10T01:01:46.218Z,273.27
2017-11-10T01:04:13.654Z,243.77
2017-11-10T01:06:41.134Z,299.07
2017-11-10T01:09:08.574Z,279.63
2017-11-10T01:11:36.040Z,253.17
2017-11-10T01:14:03.479Z,286.77
2017-11-10T01:16:30.974Z,298.77
2017-11-10T01:18:58.414Z,331.30
2017-11-10T01:21:25.889Z,354.40
2017-11-10T01:23:53.432Z,326.23
2017-11-10T01:26:20.874Z,399.87
2017-11-10T01:28:48.455Z,339.63
2017-11-10T01:31:15.890Z,347.90
2017-11-10T01:33:43.370Z,341.03
2017-11-10T01:36:10.827Z,317.03
2017-11-10T01:38:38.273Z,362.53
2017-11-10T01:41:05.742Z,338.93
2017-11-10T01:43:33.188Z,370.83
2017-11-10T01:46:00.622Z,337.90
2017-11-10T01:48:30.847Z,324.77
2017-11-10T01:50:58.303Z,385.43
2017-11-10T01:53:26.510Z,324.20
2017-11-10T01:55:53.958Z,422.10
2017-11-10T01:58:21.433Z,359.37
2017-11-10T02:00:48.857Z,345.23
2017-11-10T02:03:16.338Z,395.97
2017-11-10T02:05:43.799Z,294.47
2017-11-10T02:08:11.262Z,342.63
2017-11-10T02:10:38.690Z,327.37
2017-11-10T02:13:06.174Z,271.77
2017-11-10T02:15:33.609Z,296.80
2017-11-10T02:18:01.041Z,294.40
2017-11-10T02:20:29.362Z,332.97
2017-11-10T02:22:56.797Z,281.70
2017-11-10T02:25:24.277Z,312.13
2017-11-10T02:27:51.749Z,293.57
2017-11-10T02:30:19.189Z,346.60
2017-11-10T02:32:46.636Z,290.17
2017-11-10T02:35:14.082Z,298.07
2017-11-10T02:37:41.552Z,308.73
2017-11-10T02:40:08.974Z,340.17
2017-11-10T02:42:37.188Z,314.00
2017-11-10T02:45:04.626Z,323.00
2017-11-10T02:47:32.110Z,283.57
2017-11-10T02:49:59.617Z,263.73
2017-11-10T02:52:27.055Z,264.23
2017-11-10T02:54:54.593Z,265.90
2017-11-10T02:57:22.046Z,301.00
2017-11-10T02:59:49.475Z,233.50
2017-11-10T03:02:16.912Z,235.43
2017-11-10T03:04:44.353Z,269.30
2017-11-10T03:07:11.809Z,241.23
2017-11-10T03:09:39.246Z,228.90
2017-11-10T03:12:06.694Z,242.20
2017-11-10T03:14:34.241Z,227.50
2017-11-10T03:17:01.667Z,239.70
2017-11-10T03:19:30.026Z,219.93
2017-11-10T03:21:57.547Z,214.97
2017-11-10T03:24:25.020Z,242.00
2017-11-10T03:26:52.487Z,213.17
2017-11-10T03:29:21.456Z,225.90
2017-11-10T03:31:48.932Z,187.63
2017-11-10T03:34:16.388Z,216.63
2017-11-10T03:36:43.852Z,163.07
2017-11-10T03:39:11.429Z,159.97
2017-11-10T03:41:38.879Z,149.37
2017-11-10T03:44:06.355Z,141.97
2017-11-10T03:46:34.603Z,135.97
2017-11-10T03:49:02.143Z,154.50
2017-11-10T03:51:29.721Z,135.83
2017-11-10T03:53:58.694Z,119.87
2017-11-10T03:56:26.255Z,131.13
2017-11-10T03:58:53.829Z,132.70
2017-11-10T04:01:21.278Z,136.00
2017-11-10T04:03:48.739Z,139.83
2017-11-10T04:06:16.179Z,118.87
2017-11-10T04:08:44.420Z,129.23
2017-11-10T04:11:11.895Z,117.40
2017-11-10T04:13:40.858Z,121.97
2017-11-10T04:16:08.323Z,137.00
2017-11-10T04:18:35.887Z,141.97
2017-11-10T04:21:03.393Z,142.70
2017-11-10T04:23:31.607Z,147.43
2017-11-10T04:25:59.072Z,151.40
2017-11-10T04:28:26.532Z,145.47
2017-11-10T04:30:53.978Z,152.13
2017-11-10T04:33:21.440Z,155.90
2017-11-10T04:35:48.894Z,151.13
2017-11-10T04:38:16.363Z,145.17
2017-11-10T04:40:43.826Z,160.20
2017-11-10T04:43:11.285Z,154.63
2017-11-10T04:45:38.837Z,178.57
2017-11-10T04:48:06.397Z,164.97
2017-11-10T04:50:33.843Z,159.50
2017-11-10T04:53:01.320Z,171.13
2017-11-10T04:55:28.866Z,192.30
2017-11-10T04:57:56.325Z,187.80
2017-11-10T05:00:23.776Z,182.30
2017-11-10T05:02:51.338Z,180.67
2017-11-10T05:05:18.811Z,157.03
2017-11-10T05:07:46.346Z,173.93
2017-11-10T05:10:13.803Z,162.87
2017-11-10T05:12:41.262Z,148.70
2017-11-10T05:15:08.717Z,164.53
2017-11-10T05:17:36.175Z,172.23
2017-11-10T05:20:03.727Z,165.83
2017-11-10T05:22:31.195Z,154.57
2017-11-10T05:24:58.638Z,169.90
2017-11-10T05:27:26.075Z,145.90
2017-11-10T05:29:53.564Z,159.50
2017-11-10T05:32:21.015Z,148.67
2017-11-10T05:34:48.450Z,149.00
2017-11-10T05:37:15.882Z,154.30
2017-11-10T05:39:44.098Z,140.10
2017-11-10T05:42:11.556Z,133.73
2017-11-10T05:44:38.981Z,148.27
2017-11-10T05:47:07.195Z,149.57
2017-11-10T05:49:34.662Z,145.43
2017-11-10T05:52:02.098Z,135.63
2017-11-10T05:54:29.610Z,148.03
2017-11-10T05:56:57.052Z,143.87
2017-11-10T05:59:25.283Z,137.00
2017-11-10T06:01:52.729Z,130.33
2017-11-10T06:04:20.219Z,130.87
2017-11-10T06:06:47.650Z,124.93
2017-11-10T06:09:15.096Z,119.73
2017-11-10T06:11:43.310Z,119.03
2017-11-10T06:14:10.765Z,133.03
2017-11-10T06:16:38.213Z,125.23
2017-11-10T06:19:05.643Z,128.87
2017-11-10T06:21:33.075Z,124.67
2017-11-10T06:24:00.522Z,120.27
2017-11-10T06:26:29.476Z,125.73
2017-11-10T06:28:56.914Z,119.90
2017-11-10T06:31:24.361Z,131.10
2017-11-10T06:33:51.870Z,117.53
2017-11-10T06:36:19.418Z,120.63
2017-11-10T06:38:46.874Z,122.23
2017-11-10T06:41:14.318Z,118.03
2017-11-10T06:43:41.785Z,116.27
2017-11-10T06:46:09.344Z,113.70
2017-11-10T06:48:36.806Z,123.37
2017-11-10T06:51:05.114Z,115.27
2017-11-10T06:53:32.581Z,115.27
2017-11-10T06:56:00.033Z,107.53
2017-11-10T06:58:27.479Z,101.83
2017-11-10T07:00:54.925Z,93.50
2017-11-10T07:03:22.350Z,95.50
2017-11-10T07:05:50.560Z,101.57
2017-11-10T07:08:18.038Z,97.03
2017-11-10T07:10:45.472Z,94.00
2017-11-10T07:13:12.954Z,109.03
2017-11-10T07:15:40.398Z,114.33
2017-11-10T07:18:07.866Z,103.77
2017-11-10T07:20:35.339Z,101.90
2017-11-10T07:23:02.886Z,96.17
2017-11-10T07:25:30.314Z,107.20
2017-11-10T07:27:57.826Z,92.30
2017-11-10T07:30:26.778Z,99.40
2017-11-10T07:32:54.250Z,92.77
2017-11-10T07:35:21.706Z,87.43
2017-11-10T07:37:49.150Z,100.60
2017-11-10T07:40:16.613Z,85.93
2017-11-10T07:42:44.074Z,86.90
2017-11-10T07:45:11.544Z,98.20
2017-11-10T07:47:38.970Z,95.63
2017-11-10T07:50:06.450Z,88.27
2017-11-10T07:52:33.896Z,91.83
2017-11-10T07:55:01.326Z,93.73
2017-11-10T07:57:28.766Z,88.20
2017-11-10T07:59:56.983Z,95.70
2017-11-10T08:02:24.429Z,89.63
2017-11-10T08:04:51.854Z,89.17
2017-11-10T08:07:20.075Z,87.57
2017-11-10T08:09:47.503Z,83.67
2017-11-10T08:12:14.998Z,84.63
2017-11-10T08:14:42.443Z,79.37
2017-11-10T08:17:09.874Z,81.83
2017-11-10T08:19:37.333Z,73.07
2017-11-10T08:22:05.531Z,73.97
2017-11-10T08:24:32.994Z,80.77
2017-11-10T08:27:00.440Z,71.13
2017-11-10T08:29:27.885Z,72.87
2017-11-10T08:31:55.315Z,83.20
2017-11-10T08:34:23.545Z,64.63
2017-11-10T08:36:51.000Z,68.77
2017-11-10T08:39:18.437Z,72.83
2017-11-10T08:41:45.871Z,70.63
2017-11-10T08:44:14.190Z,66.10
2017-11-10T08:46:41.641Z,64.57
2017-11-10T08:49:09.110Z,47.20
2017-11-10T08:51:36.658Z,59.67
2017-11-10T08:54:04.131Z,54.53
2017-11-10T08:56:31.590Z,60.97
2017-11-10T08:58:59.146Z,52.90
2017-11-10T09:01:26.588Z,58.80
2017-11-10T09:03:54.012Z,49.27
2017-11-10T09:06:22.223Z,56.53
2017-11-10T09:08:49.656Z,42.43
2017-11-10T09:11:17.151Z,50.20
2017-11-10T09:13:44.572Z,59.13
2017-11-10T09:16:12.007Z,56.13
2017-11-10T09:18:40.210Z,46.97
2017-11-10T09:21:07.648Z,47.23
2017-11-10T09:23:35.863Z,43.03
2017-11-10T09:26:03.290Z,37.77
2017-11-10T09:28:46.917Z,42.67
2017-11-10T09:31:16.956Z,40.23
2017-11-10T09:33:46.337Z,30.30
2017-11-10T09:36:20.272Z,29.50
2017-11-10T09:38:53.350Z,33.90
2017-11-10T09:41:26.726Z,27.10
2017-11-10T09:44:09.810Z,34.80
2017-11-10T09:46:42.901Z,22.03
2017-11-10T09:49:26.123Z,31.27
2017-11-10T09:52:07.333Z,32.63
2017-11-10T09:54:38.987Z,24.57
2017-11-10T09:57:26.174Z,30.73
2017-11-10T10:00:12.478Z,23.13
2017-11-10T10:02:55.558Z,26.20
2017-11-10T10:05:23.406Z,22.23
2017-11-10T10:07:54.048Z,26.70
2017-11-10T10:10:32.141Z,22.23
2017-11-10T10:13:03.937Z,32.53
2017-11-10T10:15:50.246Z,30.00
2017-11-10T10:18:38.366Z,22.77
2017-11-10T10:21:23.630Z,23.77
2017-11-10T10:23:51.056Z,25.37
2017-11-10T10:26:19.990Z,22.10
2017-11-10T10:28:47.428Z,13.33
2017-11-10T10:31:15.623Z,16.70
2017-11-10T10:33:43.048Z,15.60
2017-11-10T10:36:11.254Z,14.47
2017-11-10T10:38:38.678Z,13.30
2017-11-10T10:41:06.909Z,14.40
2017-11-10T10:43:34.347Z,12.60
2017-11-10T10:46:01.774Z,19.03
2017-11-10T10:48:29.991Z,18.47
2017-11-10T10:50:57.427Z,12.87
2017-11-10T10:53:24.842Z,16.17
2017-11-10T10:55:53.034Z,15.73
2017-11-10T10:58:21.350Z,19.47
2017-11-10T11:00:48.813Z,22.67
2017-11-10T11:03:16.254Z,15.40
2017-11-10T11:05:43.732Z,18.00
2017-11-10T11:08:11.162Z,15.90
2017-11-10T11:10:38.646Z,19.93
2017-11-10T11:13:06.087Z,18.70
2017-11-10T11:15:33.522Z,20.13
2017-11-10T11:18:01.731Z,21.27
2017-11-10T11:20:29.190Z,20.10
2017-11-10T11:22:56.623Z,21.20
2017-11-10T11:25:24.050Z,16.37
2017-11-10T11:27:52.266Z,13.63
2017-11-10T11:30:19.732Z,16.13
2017-11-10T11:32:47.191Z,18.67
2017-11-10T11:35:14.625Z,15.23
2017-11-10T11:37:42.074Z,14.40
2017-11-10T11:40:09.555Z,14.87
2017-11-10T11:42:36.990Z,18.47
2017-11-10T11:45:04.426Z,17.93
2017-11-10T11:47:31.858Z,17.03
2017-11-10T11:49:59.298Z,13.13
2017-11-10T11:52:26.840Z,14.27
2017-11-10T11:54:54.314Z,13.90
2017-11-10T11:57:21.754Z,14.50
2017-11-10T11:59:49.218Z,21.87
2017-11-10T12:02:16.651Z,19.57
2017-11-10T12:04:44.090Z,17.03
2017-11-10T12:07:12.287Z,12.53
2017-11-10T12:09:39.732Z,9.30
2017-11-10T12:12:07.926Z,9.40
2017-11-10T12:14:35.395Z,15.10
2017-11-10T12:17:02.850Z,10.37
2017-11-10T12:19:30.301Z,12.47
2017-11-10T12:21:57.730Z,11.67
2017-11-10T12:24:25.937Z,13.13
2017-11-10T12:26:53.399Z,14.23
2017-11-10T12:29:20.856Z,16.97
2017-11-10T12:31:48.290Z,16.50
2017-11-10T12:34:15.729Z,14.57
2017-11-10T12:36:43.963Z,20.57
2017-11-10T12:39:11.402Z,21.80
2017-11-10T12:41:38.865Z,21.13
2017-11-10T12:44:06.314Z,19.60
2017-11-10T12:46:33.770Z,25.13
2017-11-10T12:49:01.234Z,22.77
2017-11-10T12:51:28.689Z,20.13
2017-11-10T12:53:56.128Z,14.17
2017-11-10T12:56:23.562Z,15.37
2017-11-10T12:58:51.779Z,16.60
2017-11-10T13:01:19.210Z,13.97
2017-11-10T13:03:46.655Z,12.07
2017-11-10T13:06:14.086Z,14.13
2017-11-10T13:08:41.514Z,9.03
2017-11-10T13:11:08.958Z,12.27
2017-11-10T13:13:36.422Z,12.13
2017-11-10T13:16:03.882Z,13.27
2017-11-10T13:18:31.408Z,11.30
2017-11-10T13:20:59.603Z,11.27
2017-11-10T13:23:27.022Z,13.23
2017-11-10T13:25:55.241Z,17.37
2017-11-10T13:28:22.691Z,15.17
2017-11-10T13:30:50.162Z,14.23
2017-11-10T13:33:17.760Z,12.73
2017-11-10T13:35:46.692Z,21.80
2017-11-10T13:38:14.167Z,11.93
2017-11-10T13:40:41.614Z,13.40
2017-11-10T13:43:09.083Z,18.23
2017-11-10T13:45:36.519Z,14.17
2017-11-10T13:48:03.998Z,14.83
2017-11-10T13:50:31.423Z,15.57
2017-11-10T13:52:58.858Z,11.00
2017-11-10T13:55:27.072Z,12.43
2017-11-10T13:57:54.512Z,10.10
2017-11-10T14:00:21.998Z,12.03
2017-11-10T14:02:49.478Z,18.70
2017-11-10T14:05:16.903Z,9.30
2017-11-10T14:07:44.331Z,8.80
2017-11-10T14:10:12.642Z,11.57
2017-11-10T14:12:40.091Z,11.47
2017-11-10T14:15:07.569Z,11.17
2017-11-10T14:17:35.014Z,22.73
2017-11-10T14:20:02.458Z,14.33
2017-11-10T14:22:29.931Z,18.30
2017-11-10T14:24:57.392Z,11.53
2017-11-10T14:27:24.842Z,12.43
2017-11-10T14:29:52.274Z,13.33
2017-11-10T14:32:19.754Z,14.47
2017-11-10T14:34:47.182Z,20.17
2017-11-10T14:37:14.686Z,18.97
2017-11-10T14:39:42.234Z,20.03
2017-11-10T14:42:09.662Z,23.53
2017-11-10T14:44:37.101Z,22.17
2017-11-10T14:47:04.610Z,27.27
2017-11-10T14:49:32.034Z,21.00
2017-11-10T14:51:59.514Z,19.60
2017-11-10T14:54:26.950Z,24.97
2017-11-10T14:56:54.378Z,25.63
2017-11-10T14:59:22.848Z,25.90
2017-11-10T15:01:51.189Z,24.97
2017-11-10T15:04:18.659Z,22.47
2017-11-10T15:06:46.115Z,26.63
2017-11-10T15:09:13.670Z,16.93
2017-11-10T15:11:41.119Z,17.50
2017-11-10T15:14:08.578Z,23.97
2017-11-10T15:16:36.035Z,18.93
2017-11-10T15:19:03.486Z,15.60
2017-11-10T15:21:30.946Z,26.33
2017-11-10T15:23:58.384Z,15.10
2017-11-10T15:26:25.862Z,19.43
2017-11-10T15:28:53.321Z,14.57
2017-11-10T15:31:20.751Z,17.93
2017-11-10T15:33:48.233Z,20.60
2017-11-10T15:36:15.687Z,16.67
2017-11-10T15:38:43.140Z,18.50
2017-11-10T15:41:10.553Z,22.53
2017-11-10T15:43:38.760Z,19.80
2017-11-10T15:46:06.190Z,16.87
2017-11-10T15:48:34.413Z,14.87
2017-11-10T15:51:01.876Z,21.50
2017-11-10T15:53:29.378Z,15.73
2017-11-10T15:55:57.646Z,11.63
2017-11-10T15:58:25.973Z,17.47
2017-11-10T16:00:53.444Z,16.87
2017-11-10T16:03:20.922Z,17.03
2017-11-10T16:05:48.346Z,18.63
2017-11-10T16:08:15.800Z,16.23
2017-11-10T16:10:43.222Z,20.63
2017-11-10T16:13:11.434Z,21.97
2017-11-10T16:15:38.910Z,17.17
2017-11-10T16:18:06.331Z,15.10
2017-11-10T16:20:33.754Z,16.43
2017-11-10T16:23:02.086Z,17.37
2017-11-10T16:25:29.538Z,19.57
2017-11-10T16:27:56.958Z,19.70
2017-11-10T16:30:25.178Z,15.53
2017-11-10T16:32:52.630Z,19.87
2017-11-10T16:35:20.101Z,20.03
2017-11-10T16:37:47.551Z,13.10
2017-11-10T16:40:15.007Z,16.63
2017-11-10T16:42:42.465Z,18.27
2017-11-10T16:45:09.910Z,24.00
2017-11-10T16:47:37.374Z,24.17
2017-11-10T16:50:04.805Z,18.03
2017-11-10T16:52:32.239Z,19.07
2017-11-10T16:55:00.462Z,25.50
2017-11-10T16:57:27.889Z,14.17
2017-11-10T16:59:55.371Z,14.43
2017-11-10T17:02:22.830Z,18.57
2017-11-10T17:04:50.266Z,11.37
2017-11-10T17:07:17.747Z,17.33
2017-11-10T17:09:45.184Z,15.97
2017-11-10T17:12:12.641Z,19.97
2017-11-10T17:14:40.110Z,18.30
2017-11-10T17:17:07.574Z,22.92
2017-11-10T17:19:35.035Z,19.03
2017-11-10T17:22:02.468Z,21.80
2017-11-10T17:24:29.894Z,19.17
2017-11-10T17:26:58.129Z,17.80
2017-11-10T17:29:25.558Z,24.13
2017-11-10T17:31:53.028Z,20.00
2017-11-10T17:34:20.435Z,16.37
2017-11-10T17:36:49.377Z,17.17
2017-11-10T17:39:16.815Z,22.67
2017-11-10T17:41:44.235Z,13.47
2017-11-10T17:44:11.667Z,18.63
2017-11-10T17:46:39.100Z,12.90
2017-11-10T17:49:06.530Z,18.67
2017-11-10T17:51:34.735Z,22.57
2017-11-10T17:54:02.154Z,22.23
2017-11-10T17:56:30.370Z,16.93
2017-11-10T17:58:57.857Z,24.30
2017-11-10T18:01:25.390Z,35.93
2017-11-10T18:03:52.818Z,35.90
2017-11-10T18:06:20.257Z,25.33
2017-11-10T18:08:48.477Z,16.90
2017-11-10T18:11:15.918Z,27.37
2017-11-10T18:13:43.400Z,19.30
2017-11-10T18:16:10.833Z,20.97
2017-11-10T18:18:38.258Z,16.27
2017-11-10T18:21:06.486Z,18.13
2017-11-10T18:23:33.912Z,22.13
2017-11-10T18:26:01.512Z,20.90
2017-11-10T18:28:29.065Z,16.80
2017-11-10T18:30:56.510Z,17.27
2017-11-10T18:33:23.935Z,24.30
2017-11-10T18:35:52.162Z,17.73
2017-11-10T18:38:19.585Z,16.37
2017-11-10T18:40:47.052Z,14.17
2017-11-10T18:43:14.499Z,15.07
2017-11-10T18:45:41.934Z,26.90
2017-11-10T18:48:10.143Z,34.10
2017-11-10T18:50:37.625Z,18.80
2017-11-10T18:53:05.055Z,16.40
2017-11-10T18:55:38.251Z,19.93
2017-11-10T18:58:05.671Z,12.37
2017-11-10T19:00:33.866Z,18.00
2017-11-10T19:03:01.310Z,23.27
2017-11-10T19:05:28.738Z,27.17
2017-11-10T19:07:57.684Z,15.67
2017-11-10T19:10:25.151Z,21.20
2017-11-10T19:12:52.581Z,20.20
2017-11-10T19:15:20.060Z,28.53
2017-11-10T19:17:47.490Z,25.70
2017-11-10T19:20:14.989Z,33.87
2017-11-10T19:22:42.414Z,29.13
2017-11-10T19:25:09.847Z,28.30
2017-11-10T19:27:37.414Z,48.43
2017-11-10T19:30:04.840Z,19.50
2017-11-10T19:32:33.046Z,14.30
2017-11-10T19:35:00.475Z,30.17
2017-11-10T19:37:27.898Z,23.43
2017-11-10T19:40:06.170Z,23.87
2017-11-10T19:42:33.602Z,52.20
2017-11-10T19:45:01.092Z,21.67
2017-11-10T19:47:28.534Z,20.80
2017-11-10T19:49:55.986Z,24.63
2017-11-10T19:52:23.554Z,25.80
2017-11-10T19:54:50.992Z,22.50
2017-11-10T19:57:18.414Z,15.30
2017-11-10T19:59:46.607Z,15.37
2017-11-10T20:02:14.815Z,18.07
2017-11-10T20:04:42.300Z,19.87
2017-11-10T20:07:09.710Z,18.47
2017-11-10T20:09:37.185Z,20.37
2017-11-10T20:12:04.590Z,18.70
2017-11-10T20:14:32.831Z,22.60
2017-11-10T20:17:00.281Z,20.70
2017-11-10T20:19:27.715Z,15.00
2017-11-10T20:21:55.137Z,20.83
2017-11-10T20:24:23.382Z,17.23
2017-11-10T20:26:50.798Z,26.07
2017-11-10T20:29:18.224Z,28.60
2017-11-10T20:31:47.280Z,24.23
2017-11-10T20:34:14.736Z,22.23
2017-11-10T20:36:42.153Z,14.33
2017-11-10T20:39:10.469Z,10.53
2017-11-10T20:41:37.949Z,11.97
2017-11-10T20:44:05.378Z,18.03
2017-11-10T20:46:32.828Z,16.10
2017-11-10T20:49:00.298Z,12.73
2017-11-10T20:51:27.768Z,7.10
2017-11-10T20:53:55.306Z,8.00
2017-11-10T20:56:22.739Z,9.50
2017-11-10T20:58:50.160Z,6.30
2017-11-10T21:01:17.607Z,11.00
2017-11-10T21:03:45.031Z,6.23
2017-11-10T21:06:12.454Z,7.60
2017-11-10T21:08:40.666Z,13.60
2017-11-10T21:11:08.102Z,11.33
2017-11-10T21:13:35.578Z,15.80
2017-11-10T21:16:03.014Z,17.57
2017-11-10T21:18:30.438Z,14.00
2017-11-10T21:20:58.626Z,18.57
2017-11-10T21:23:26.936Z,16.87
2017-11-10T21:25:54.349Z,17.33
2017-11-10T21:28:22.533Z,22.43
2017-11-10T21:30:50.767Z,17.60
2017-11-10T21:33:18.170Z,14.70
2017-11-10T21:35:46.366Z,19.63
2017-11-10T21:38:13.798Z,12.47
2017-11-10T21:40:42.052Z,16.10
2017-11-10T21:43:09.565Z,15.07
2017-11-10T21:45:37.002Z,16.93
2017-11-10T21:48:04.482Z,20.90
2017-11-10T21:50:31.909Z,25.07
2017-11-10T21:52:59.396Z,23.17
2017-11-10T21:55:26.822Z,27.93
2017-11-10T21:57:54.252Z,17.73
2017-11-10T22:00:21.682Z,19.70
2017-11-10T22:02:49.126Z,17.87
2017-11-10T22:05:16.546Z,21.87
2017-11-10T22:07:44.855Z,10.87
2017-11-10T22:10:12.318Z,15.53
2017-11-10T22:12:39.742Z,11.93
2017-11-10T22:15:07.939Z,12.00
2017-11-10T22:17:35.365Z,12.13
2017-11-10T22:20:03.674Z,15.03
2017-11-10T22:22:31.097Z,14.97
2017-11-10T22:24:59.313Z,13.93
2017-11-10T22:27:26.740Z,15.27
2017-11-10T22:29:54.246Z,19.27
2017-11-10T22:32:21.682Z,22.97
2017-11-10T22:34:49.140Z,10.17
2017-11-10T22:37:16.594Z,6.93
2017-11-10T22:39:44.023Z,8.83
2017-11-10T22:42:11.451Z,8.73
2017-11-10T22:44:38.975Z,11.10
2017-11-10T22:47:06.435Z,11.53
2017-11-10T22:49:33.857Z,16.47
2017-11-10T22:52:01.286Z,8.20
2017-11-10T22:54:29.477Z,10.90
2017-11-10T22:56:57.706Z,8.50
2017-11-10T22:59:25.143Z,16.27
2017-11-10T23:01:52.602Z,18.83
2017-11-10T23:04:20.021Z,19.23
2017-11-10T23:06:48.223Z,14.93
2017-11-10T23:09:15.698Z,14.73
2017-11-10T23:11:43.142Z,17.43
2017-11-10T23:14:10.583Z,20.60
2017-11-10T23:16:38.007Z,14.13
2017-11-10T23:19:05.443Z,18.27
2017-11-10T23:21:32.973Z,14.83
2017-11-10T23:24:00.442Z,16.37
2017-11-10T23:26:27.894Z,16.07
2017-11-10T23:28:55.326Z,20.47
2017-11-10T23:31:22.762Z,16.53
2017-11-10T23:33:50.954Z,23.27
2017-11-10T23:36:18.390Z,18.27
2017-11-10T23:38:46.610Z,15.87
2017-11-10T23:41:14.051Z,20.47
2017-11-10T23:43:41.490Z,12.23
2017-11-10T23:46:08.980Z,9.57
2017-11-10T23:48:36.404Z,15.00
2017-11-10T23:51:04.626Z,16.77
2017-11-10T23:53:32.042Z,14.07
2017-11-10T23:55:59.528Z,15.53
2017-11-10T23:58:26.957Z,19.03
